sensor_id;sensor_type;location;lat;lon;timestamp;P1;durP1;ratioP1;P2;durP2;ratioP2
36597;SDS011;22607;49.550;11.940;2023-05-09T00:01:27;6.85;;;3.10;;
36597;SDS011;22607;49.550;11.940;2023-05-09T00:03:56;8.10;;;3.40;;
36597;SDS011;22607;49.550;11.940;2023-05-09T00:06:24;7.20;;;2.90;;
36597;SDS011;22607;49.550;11.940;2023-05-09T00:08:53;7.32;;;3.15;;
36597;SDS011;22607;49.550;11.940;2023-05-09T00:11:26;7.60;;;3.15;;
36597;SDS011;22607;49.550;11.940;2023-05-09T00:16:19;7.20;;;2.75;;
36597;SDS011;22607;49.550;11.940;2023-05-09T00:18:45;6.72;;;2.75;;
36597;SDS011;22607;49.550;11.940;2023-05-09T00:21:12;7.47;;;3.08;;
36597;SDS011;22607;49.550;11.940;2023-05-09T00:23:38;7.43;;;3.15;;
36597;SDS011;22607;49.550;11.940;2023-05-09T00:26:05;8.55;;;3.42;;
36597;SDS011;22607;49.550;11.940;2023-05-09T00:28:31;8.40;;;3.53;;
36597;SDS011;22607;49.550;11.940;2023-05-09T00:30:58;7.30;;;3.10;;
36597;SDS011;22607;49.550;11.940;2023-05-09T00:35:55;8.15;;;3.47;;
36597;SDS011;22607;49.550;11.940;2023-05-09T00:38:22;8.70;;;2.83;;
36597;SDS011;22607;49.550;11.940;2023-05-09T00:40:48;7.55;;;3.50;;
36597;SDS011;22607;49.550;11.940;2023-05-09T00:43:15;7.93;;;3.45;;
36597;SDS011;22607;49.550;11.940;2023-05-09T00:45:42;8.13;;;3.30;;
36597;SDS011;22607;49.550;11.940;2023-05-09T00:48:10;7.55;;;3.30;;
36597;SDS011;22607;49.550;11.940;2023-05-09T00:50:45;8.90;;;3.20;;
36597;SDS011;22607;49.550;11.940;2023-05-09T00:53:12;7.78;;;3.40;;
36597;SDS011;22607;49.550;11.940;2023-05-09T00:55:41;7.10;;;3.00;;
36597;SDS011;22607;49.550;11.940;2023-05-09T00:58:08;7.60;;;3.35;;
36597;SDS011;22607;49.550;11.940;2023-05-09T01:00:34;7.28;;;2.80;;
36597;SDS011;22607;49.550;11.940;2023-05-09T01:03:01;8.55;;;2.95;;
36597;SDS011;22607;49.550;11.940;2023-05-09T01:05:37;7.05;;;2.90;;
36597;SDS011;22607;49.550;11.940;2023-05-09T01:08:16;7.10;;;2.80;;
36597;SDS011;22607;49.550;11.940;2023-05-09T01:13:43;7.13;;;2.80;;
36597;SDS011;22607;49.550;11.940;2023-05-09T01:19:15;6.95;;;2.70;;
36597;SDS011;22607;49.550;11.940;2023-05-09T01:21:52;6.65;;;2.67;;
36597;SDS011;22607;49.550;11.940;2023-05-09T01:24:31;7.00;;;2.80;;
36597;SDS011;22607;49.550;11.940;2023-05-09T01:29:55;7.80;;;3.30;;
36597;SDS011;22607;49.550;11.940;2023-05-09T01:32:37;7.40;;;2.83;;
36597;SDS011;22607;49.550;11.940;2023-05-09T01:35:07;8.02;;;2.92;;
36597;SDS011;22607;49.550;11.940;2023-05-09T01:37:41;7.40;;;3.30;;
36597;SDS011;22607;49.550;11.940;2023-05-09T01:40:18;7.43;;;2.88;;
36597;SDS011;22607;49.550;11.940;2023-05-09T01:42:51;6.90;;;2.67;;
36597;SDS011;22607;49.550;11.940;2023-05-09T01:45:23;7.50;;;2.90;;
36597;SDS011;22607;49.550;11.940;2023-05-09T01:47:51;7.10;;;2.67;;
36597;SDS011;22607;49.550;11.940;2023-05-09T01:50:19;7.45;;;3.00;;
36597;SDS011;22607;49.550;11.940;2023-05-09T01:52:48;7.88;;;3.00;;
36597;SDS011;22607;49.550;11.940;2023-05-09T01:55:18;7.95;;;2.97;;
36597;SDS011;22607;49.550;11.940;2023-05-09T01:57:47;6.65;;;2.70;;
36597;SDS011;22607;49.550;11.940;2023-05-09T02:00:15;8.23;;;3.30;;
36597;SDS011;22607;49.550;11.940;2023-05-09T02:02:42;7.30;;;3.00;;
36597;SDS011;22607;49.550;11.940;2023-05-09T02:05:10;8.38;;;2.58;;
36597;SDS011;22607;49.550;11.940;2023-05-09T02:07:38;7.15;;;2.90;;
36597;SDS011;22607;49.550;11.940;2023-05-09T02:10:14;7.43;;;3.10;;
36597;SDS011;22607;49.550;11.940;2023-05-09T02:12:41;7.15;;;2.92;;
36597;SDS011;22607;49.550;11.940;2023-05-09T02:15:08;7.40;;;3.03;;
36597;SDS011;22607;49.550;11.940;2023-05-09T02:17:35;7.07;;;2.67;;
36597;SDS011;22607;49.550;11.940;2023-05-09T02:20:02;7.35;;;2.60;;
36597;SDS011;22607;49.550;11.940;2023-05-09T02:22:30;7.53;;;2.65;;
36597;SDS011;22607;49.550;11.940;2023-05-09T02:24:57;7.65;;;2.72;;
36597;SDS011;22607;49.550;11.940;2023-05-09T02:27:23;6.38;;;2.40;;
36597;SDS011;22607;49.550;11.940;2023-05-09T02:30:02;7.50;;;2.97;;
36597;SDS011;22607;49.550;11.940;2023-05-09T02:32:36;7.40;;;2.58;;
36597;SDS011;22607;49.550;11.940;2023-05-09T02:35:15;9.40;;;2.75;;
36597;SDS011;22607;49.550;11.940;2023-05-09T02:37:44;9.50;;;3.08;;
36597;SDS011;22607;49.550;11.940;2023-05-09T02:40:13;7.30;;;2.75;;
36597;SDS011;22607;49.550;11.940;2023-05-09T02:42:40;7.85;;;2.83;;
36597;SDS011;22607;49.550;11.940;2023-05-09T02:45:07;6.93;;;2.70;;
36597;SDS011;22607;49.550;11.940;2023-05-09T02:47:35;6.43;;;2.17;;
36597;SDS011;22607;49.550;11.940;2023-05-09T02:50:03;7.57;;;2.45;;
36597;SDS011;22607;49.550;11.940;2023-05-09T02:52:30;6.70;;;2.38;;
36597;SDS011;22607;49.550;11.940;2023-05-09T02:54:57;7.53;;;2.63;;
36597;SDS011;22607;49.550;11.940;2023-05-09T02:57:23;7.15;;;2.80;;
36597;SDS011;22607;49.550;11.940;2023-05-09T02:59:50;6.78;;;2.40;;
36597;SDS011;22607;49.550;11.940;2023-05-09T03:02:16;6.97;;;2.70;;
36597;SDS011;22607;49.550;11.940;2023-05-09T03:04:43;7.35;;;2.45;;
36597;SDS011;22607;49.550;11.940;2023-05-09T03:07:10;7.57;;;2.67;;
36597;SDS011;22607;49.550;11.940;2023-05-09T03:09:37;7.15;;;2.38;;
36597;SDS011;22607;49.550;11.940;2023-05-09T03:12:07;7.18;;;2.92;;
36597;SDS011;22607;49.550;11.940;2023-05-09T03:14:34;7.60;;;2.63;;
36597;SDS011;22607;49.550;11.940;2023-05-09T03:17:00;8.52;;;3.05;;
36597;SDS011;22607;49.550;11.940;2023-05-09T03:19:27;7.70;;;2.88;;
36597;SDS011;22607;49.550;11.940;2023-05-09T03:21:59;8.82;;;2.45;;
36597;SDS011;22607;49.550;11.940;2023-05-09T03:24:26;7.65;;;2.97;;
36597;SDS011;22607;49.550;11.940;2023-05-09T03:26:53;8.25;;;2.70;;
36597;SDS011;22607;49.550;11.940;2023-05-09T03:29:20;8.60;;;3.10;;
36597;SDS011;22607;49.550;11.940;2023-05-09T03:31:46;7.70;;;3.00;;
36597;SDS011;22607;49.550;11.940;2023-05-09T03:34:13;7.40;;;2.90;;
36597;SDS011;22607;49.550;11.940;2023-05-09T03:36:41;7.70;;;2.80;;
36597;SDS011;22607;49.550;11.940;2023-05-09T03:39:09;7.63;;;2.88;;
36597;SDS011;22607;49.550;11.940;2023-05-09T03:41:35;6.13;;;2.35;;
36597;SDS011;22607;49.550;11.940;2023-05-09T03:46:34;7.85;;;2.55;;
36597;SDS011;22607;49.550;11.940;2023-05-09T03:51:30;7.90;;;2.80;;
36597;SDS011;22607;49.550;11.940;2023-05-09T03:53:57;7.75;;;2.78;;
36597;SDS011;22607;49.550;11.940;2023-05-09T03:56:24;6.85;;;2.60;;
36597;SDS011;22607;49.550;11.940;2023-05-09T03:58:51;7.50;;;2.92;;
36597;SDS011;22607;49.550;11.940;2023-05-09T04:01:18;8.43;;;3.22;;
36597;SDS011;22607;49.550;11.940;2023-05-09T04:03:50;7.70;;;2.97;;
36597;SDS011;22607;49.550;11.940;2023-05-09T04:06:17;7.90;;;2.88;;
36597;SDS011;22607;49.550;11.940;2023-05-09T04:08:44;7.78;;;2.58;;
36597;SDS011;22607;49.550;11.940;2023-05-09T04:11:11;8.30;;;3.10;;
36597;SDS011;22607;49.550;11.940;2023-05-09T04:13:37;11.40;;;2.65;;
36597;SDS011;22607;49.550;11.940;2023-05-09T04:16:04;7.32;;;2.80;;
36597;SDS011;22607;49.550;11.940;2023-05-09T04:18:31;7.30;;;2.92;;
36597;SDS011;22607;49.550;11.940;2023-05-09T04:20:57;7.85;;;2.45;;
36597;SDS011;22607;49.550;11.940;2023-05-09T04:23:24;6.07;;;2.40;;
36597;SDS011;22607;49.550;11.940;2023-05-09T04:25:50;6.85;;;2.40;;
36597;SDS011;22607;49.550;11.940;2023-05-09T04:28:19;6.35;;;2.42;;
36597;SDS011;22607;49.550;11.940;2023-05-09T04:30:45;7.47;;;2.45;;
36597;SDS011;22607;49.550;11.940;2023-05-09T04:33:12;6.88;;;2.60;;
36597;SDS011;22607;49.550;11.940;2023-05-09T04:35:38;6.80;;;2.65;;
36597;SDS011;22607;49.550;11.940;2023-05-09T04:38:06;7.05;;;2.70;;
36597;SDS011;22607;49.550;11.940;2023-05-09T04:40:35;7.05;;;2.45;;
36597;SDS011;22607;49.550;11.940;2023-05-09T04:43:01;6.82;;;2.28;;
36597;SDS011;22607;49.550;11.940;2023-05-09T04:45:28;7.05;;;2.67;;
36597;SDS011;22607;49.550;11.940;2023-05-09T04:47:55;7.10;;;2.28;;
36597;SDS011;22607;49.550;11.940;2023-05-09T04:50:22;6.60;;;2.30;;
36597;SDS011;22607;49.550;11.940;2023-05-09T04:52:48;6.47;;;2.10;;
36597;SDS011;22607;49.550;11.940;2023-05-09T04:55:15;9.40;;;3.15;;
36597;SDS011;22607;49.550;11.940;2023-05-09T04:57:42;7.10;;;2.90;;
36597;SDS011;22607;49.550;11.940;2023-05-09T05:00:09;9.40;;;2.90;;
36597;SDS011;22607;49.550;11.940;2023-05-09T05:02:38;7.28;;;2.67;;
36597;SDS011;22607;49.550;11.940;2023-05-09T05:05:06;7.20;;;2.60;;
36597;SDS011;22607;49.550;11.940;2023-05-09T05:07:37;6.78;;;2.60;;
36597;SDS011;22607;49.550;11.940;2023-05-09T05:10:04;7.10;;;2.67;;
36597;SDS011;22607;49.550;11.940;2023-05-09T05:12:31;7.93;;;2.75;;
36597;SDS011;22607;49.550;11.940;2023-05-09T05:14:58;6.53;;;2.35;;
36597;SDS011;22607;49.550;11.940;2023-05-09T05:17:24;7.82;;;2.80;;
36597;SDS011;22607;49.550;11.940;2023-05-09T05:19:51;9.07;;;3.03;;
36597;SDS011;22607;49.550;11.940;2023-05-09T05:22:17;8.35;;;2.88;;
36597;SDS011;22607;49.550;11.940;2023-05-09T05:24:47;8.60;;;2.70;;
36597;SDS011;22607;49.550;11.940;2023-05-09T05:27:13;7.88;;;3.00;;
36597;SDS011;22607;49.550;11.940;2023-05-09T05:29:41;7.60;;;3.05;;
36597;SDS011;22607;49.550;11.940;2023-05-09T05:32:09;8.50;;;2.88;;
36597;SDS011;22607;49.550;11.940;2023-05-09T05:34:36;6.93;;;2.83;;
36597;SDS011;22607;49.550;11.940;2023-05-09T05:37:04;8.02;;;2.88;;
36597;SDS011;22607;49.550;11.940;2023-05-09T05:39:31;9.85;;;3.17;;
36597;SDS011;22607;49.550;11.940;2023-05-09T05:41:57;7.45;;;2.90;;
36597;SDS011;22607;49.550;11.940;2023-05-09T05:44:24;9.93;;;3.15;;
36597;SDS011;22607;49.550;11.940;2023-05-09T05:52:09;9.38;;;3.05;;
36597;SDS011;22607;49.550;11.940;2023-05-09T05:54:35;7.97;;;3.20;;
36597;SDS011;22607;49.550;11.940;2023-05-09T05:57:02;9.43;;;3.13;;
36597;SDS011;22607;49.550;11.940;2023-05-09T05:59:28;7.88;;;3.53;;
36597;SDS011;22607;49.550;11.940;2023-05-09T06:01:55;7.05;;;2.92;;
36597;SDS011;22607;49.550;11.940;2023-05-09T06:04:22;7.80;;;2.90;;
36597;SDS011;22607;49.550;11.940;2023-05-09T06:06:49;7.80;;;3.40;;
36597;SDS011;22607;49.550;11.940;2023-05-09T06:09:16;8.35;;;2.70;;
36597;SDS011;22607;49.550;11.940;2023-05-09T06:11:42;7.65;;;2.90;;
36597;SDS011;22607;49.550;11.940;2023-05-09T06:14:09;8.35;;;3.03;;
36597;SDS011;22607;49.550;11.940;2023-05-09T06:16:35;7.13;;;2.88;;
36597;SDS011;22607;49.550;11.940;2023-05-09T06:19:02;7.20;;;2.90;;
36597;SDS011;22607;49.550;11.940;2023-05-09T06:21:28;7.93;;;3.10;;
36597;SDS011;22607;49.550;11.940;2023-05-09T06:26:35;7.85;;;2.78;;
36597;SDS011;22607;49.550;11.940;2023-05-09T06:29:02;9.35;;;2.92;;
36597;SDS011;22607;49.550;11.940;2023-05-09T06:31:31;10.18;;;3.20;;
36597;SDS011;22607;49.550;11.940;2023-05-09T06:33:58;6.88;;;2.80;;
36597;SDS011;22607;49.550;11.940;2023-05-09T06:36:24;8.27;;;2.90;;
36597;SDS011;22607;49.550;11.940;2023-05-09T06:38:53;7.63;;;3.00;;
36597;SDS011;22607;49.550;11.940;2023-05-09T06:41:19;8.38;;;2.90;;
36597;SDS011;22607;49.550;11.940;2023-05-09T06:43:47;8.82;;;3.00;;
36597;SDS011;22607;49.550;11.940;2023-05-09T06:46:15;9.32;;;3.20;;
36597;SDS011;22607;49.550;11.940;2023-05-09T06:48:41;7.53;;;2.60;;
36597;SDS011;22607;49.550;11.940;2023-05-09T06:51:08;9.40;;;3.28;;
36597;SDS011;22607;49.550;11.940;2023-05-09T06:53:34;7.97;;;2.95;;
36597;SDS011;22607;49.550;11.940;2023-05-09T06:56:03;8.25;;;2.70;;
36597;SDS011;22607;49.550;11.940;2023-05-09T06:58:30;8.43;;;2.65;;
36597;SDS011;22607;49.550;11.940;2023-05-09T07:00:56;7.95;;;3.00;;
36597;SDS011;22607;49.550;11.940;2023-05-09T07:03:23;7.85;;;2.83;;
36597;SDS011;22607;49.550;11.940;2023-05-09T07:05:49;8.50;;;2.95;;
36597;SDS011;22607;49.550;11.940;2023-05-09T07:08:17;8.15;;;3.00;;
36597;SDS011;22607;49.550;11.940;2023-05-09T07:10:44;7.38;;;2.67;;
36597;SDS011;22607;49.550;11.940;2023-05-09T07:13:10;8.73;;;2.92;;
36597;SDS011;22607;49.550;11.940;2023-05-09T07:15:37;7.50;;;2.80;;
36597;SDS011;22607;49.550;11.940;2023-05-09T07:20:52;7.22;;;2.83;;
36597;SDS011;22607;49.550;11.940;2023-05-09T07:23:18;6.57;;;2.60;;
36597;SDS011;22607;49.550;11.940;2023-05-09T07:25:45;7.22;;;2.72;;
36597;SDS011;22607;49.550;11.940;2023-05-09T07:28:14;8.18;;;2.72;;
36597;SDS011;22607;49.550;11.940;2023-05-09T07:30:41;8.82;;;2.70;;
36597;SDS011;22607;49.550;11.940;2023-05-09T07:33:08;7.30;;;2.88;;
36597;SDS011;22607;49.550;11.940;2023-05-09T07:35:35;7.32;;;2.78;;
36597;SDS011;22607;49.550;11.940;2023-05-09T07:38:02;7.03;;;2.47;;
36597;SDS011;22607;49.550;11.940;2023-05-09T07:43:01;7.10;;;2.80;;
36597;SDS011;22607;49.550;11.940;2023-05-09T07:45:28;7.53;;;2.78;;
36597;SDS011;22607;49.550;11.940;2023-05-09T07:47:54;7.00;;;2.47;;
36597;SDS011;22607;49.550;11.940;2023-05-09T07:50:21;6.53;;;2.58;;
36597;SDS011;22607;49.550;11.940;2023-05-09T07:52:48;9.35;;;2.80;;
36597;SDS011;22607;49.550;11.940;2023-05-09T07:55:14;6.85;;;2.42;;
36597;SDS011;22607;49.550;11.940;2023-05-09T07:57:41;6.63;;;2.28;;
36597;SDS011;22607;49.550;11.940;2023-05-09T08:00:14;7.10;;;2.65;;
36597;SDS011;22607;49.550;11.940;2023-05-09T08:02:41;5.63;;;2.17;;
36597;SDS011;22607;49.550;11.940;2023-05-09T08:05:15;8.02;;;2.30;;
36597;SDS011;22607;49.550;11.940;2023-05-09T08:07:42;9.55;;;2.35;;
36597;SDS011;22607;49.550;11.940;2023-05-09T08:10:18;5.90;;;2.13;;
36597;SDS011;22607;49.550;11.940;2023-05-09T08:12:47;6.65;;;2.20;;
36597;SDS011;22607;49.550;11.940;2023-05-09T08:15:14;7.05;;;2.20;;
36597;SDS011;22607;49.550;11.940;2023-05-09T08:17:43;7.30;;;2.40;;
36597;SDS011;22607;49.550;11.940;2023-05-09T08:20:10;6.43;;;2.35;;
36597;SDS011;22607;49.550;11.940;2023-05-09T08:22:38;8.05;;;2.47;;
36597;SDS011;22607;49.550;11.940;2023-05-09T08:25:06;7.28;;;2.25;;
36597;SDS011;22607;49.550;11.940;2023-05-09T08:27:33;6.47;;;2.08;;
36597;SDS011;22607;49.550;11.940;2023-05-09T08:30:01;6.45;;;2.08;;
36597;SDS011;22607;49.550;11.940;2023-05-09T08:32:27;7.40;;;2.40;;
36597;SDS011;22607;49.550;11.940;2023-05-09T08:34:54;7.75;;;2.20;;
36597;SDS011;22607;49.550;11.940;2023-05-09T08:37:20;6.28;;;2.10;;
36597;SDS011;22607;49.550;11.940;2023-05-09T08:39:47;5.88;;;2.20;;
36597;SDS011;22607;49.550;11.940;2023-05-09T08:42:13;4.90;;;1.70;;
36597;SDS011;22607;49.550;11.940;2023-05-09T08:44:43;6.40;;;2.03;;
36597;SDS011;22607;49.550;11.940;2023-05-09T08:47:10;7.05;;;1.98;;
36597;SDS011;22607;49.550;11.940;2023-05-09T08:49:38;6.78;;;2.63;;
36597;SDS011;22607;49.550;11.940;2023-05-09T08:52:06;7.07;;;1.98;;
36597;SDS011;22607;49.550;11.940;2023-05-09T08:54:33;7.45;;;2.00;;
36597;SDS011;22607;49.550;11.940;2023-05-09T08:57:00;6.32;;;1.90;;
36597;SDS011;22607;49.550;11.940;2023-05-09T08:59:27;7.43;;;2.05;;
36597;SDS011;22607;49.550;11.940;2023-05-09T09:01:55;5.82;;;2.08;;
36597;SDS011;22607;49.550;11.940;2023-05-09T09:04:22;7.03;;;2.00;;
36597;SDS011;22607;49.550;11.940;2023-05-09T09:06:49;6.88;;;2.20;;
36597;SDS011;22607;49.550;11.940;2023-05-09T09:09:18;8.05;;;1.90;;
36597;SDS011;22607;49.550;11.940;2023-05-09T09:11:46;6.50;;;1.90;;
36597;SDS011;22607;49.550;11.940;2023-05-09T09:14:14;6.70;;;2.17;;
36597;SDS011;22607;49.550;11.940;2023-05-09T09:19:48;5.60;;;1.70;;
36597;SDS011;22607;49.550;11.940;2023-05-09T09:22:17;9.57;;;1.80;;
36597;SDS011;22607;49.550;11.940;2023-05-09T09:24:44;6.35;;;1.90;;
36597;SDS011;22607;49.550;11.940;2023-05-09T09:27:11;5.40;;;1.75;;
36597;SDS011;22607;49.550;11.940;2023-05-09T09:29:37;4.95;;;1.63;;
36597;SDS011;22607;49.550;11.940;2023-05-09T09:32:05;6.40;;;1.70;;
36597;SDS011;22607;49.550;11.940;2023-05-09T09:34:32;6.32;;;1.70;;
36597;SDS011;22607;49.550;11.940;2023-05-09T09:36:59;5.38;;;1.50;;
36597;SDS011;22607;49.550;11.940;2023-05-09T09:39:26;6.63;;;1.60;;
36597;SDS011;22607;49.550;11.940;2023-05-09T09:41:53;6.05;;;1.60;;
36597;SDS011;22607;49.550;11.940;2023-05-09T09:44:20;4.93;;;1.60;;
36597;SDS011;22607;49.550;11.940;2023-05-09T09:46:53;6.38;;;1.65;;
36597;SDS011;22607;49.550;11.940;2023-05-09T09:49:22;4.22;;;1.40;;
36597;SDS011;22607;49.550;11.940;2023-05-09T09:52:00;6.57;;;1.50;;
36597;SDS011;22607;49.550;11.940;2023-05-09T09:54:26;4.55;;;1.40;;
36597;SDS011;22607;49.550;11.940;2023-05-09T09:56:53;4.75;;;1.27;;
36597;SDS011;22607;49.550;11.940;2023-05-09T09:59:27;6.55;;;1.50;;
36597;SDS011;22607;49.550;11.940;2023-05-09T10:02:04;4.88;;;1.42;;
36597;SDS011;22607;49.550;11.940;2023-05-09T10:04:34;4.65;;;1.30;;
36597;SDS011;22607;49.550;11.940;2023-05-09T10:07:05;5.60;;;1.60;;
36597;SDS011;22607;49.550;11.940;2023-05-09T10:09:33;4.28;;;1.17;;
36597;SDS011;22607;49.550;11.940;2023-05-09T10:12:01;3.45;;;1.10;;
36597;SDS011;22607;49.550;11.940;2023-05-09T10:14:30;5.05;;;1.25;;
36597;SDS011;22607;49.550;11.940;2023-05-09T10:17:01;3.80;;;1.20;;
36597;SDS011;22607;49.550;11.940;2023-05-09T10:19:29;5.20;;;1.45;;
36597;SDS011;22607;49.550;11.940;2023-05-09T10:22:08;4.38;;;1.38;;
36597;SDS011;22607;49.550;11.940;2023-05-09T10:24:41;4.80;;;1.25;;
36597;SDS011;22607;49.550;11.940;2023-05-09T10:27:13;4.50;;;1.30;;
36597;SDS011;22607;49.550;11.940;2023-05-09T10:29:44;5.30;;;1.40;;
36597;SDS011;22607;49.550;11.940;2023-05-09T10:34:53;5.18;;;1.52;;
36597;SDS011;22607;49.550;11.940;2023-05-09T10:37:27;4.20;;;1.13;;
36597;SDS011;22607;49.550;11.940;2023-05-09T10:39:54;4.40;;;1.20;;
36597;SDS011;22607;49.550;11.940;2023-05-09T10:42:22;3.90;;;1.20;;
36597;SDS011;22607;49.550;11.940;2023-05-09T10:44:51;4.28;;;1.40;;
36597;SDS011;22607;49.550;11.940;2023-05-09T10:47:19;4.78;;;1.60;;
36597;SDS011;22607;49.550;11.940;2023-05-09T10:49:47;4.72;;;1.50;;
36597;SDS011;22607;49.550;11.940;2023-05-09T10:52:14;5.40;;;1.63;;
36597;SDS011;22607;49.550;11.940;2023-05-09T10:54:42;5.45;;;1.60;;
36597;SDS011;22607;49.550;11.940;2023-05-09T10:57:08;4.60;;;1.60;;
36597;SDS011;22607;49.550;11.940;2023-05-09T10:59:43;5.25;;;1.67;;
36597;SDS011;22607;49.550;11.940;2023-05-09T11:02:11;6.13;;;1.70;;
36597;SDS011;22607;49.550;11.940;2023-05-09T11:07:27;5.43;;;1.50;;
36597;SDS011;22607;49.550;11.940;2023-05-09T11:10:14;5.55;;;1.85;;
36597;SDS011;22607;49.550;11.940;2023-05-09T11:12:56;4.82;;;1.42;;
36597;SDS011;22607;49.550;11.940;2023-05-09T11:15:24;4.55;;;1.40;;
36597;SDS011;22607;49.550;11.940;2023-05-09T11:18:06;4.22;;;1.33;;
36597;SDS011;22607;49.550;11.940;2023-05-09T11:20:34;5.40;;;1.45;;
36597;SDS011;22607;49.550;11.940;2023-05-09T11:23:07;4.55;;;1.55;;
36597;SDS011;22607;49.550;11.940;2023-05-09T11:25:39;6.00;;;1.60;;
36597;SDS011;22607;49.550;11.940;2023-05-09T11:28:07;6.67;;;1.90;;
36597;SDS011;22607;49.550;11.940;2023-05-09T11:30:37;5.85;;;1.70;;
36597;SDS011;22607;49.550;11.940;2023-05-09T11:33:29;5.80;;;1.60;;
36597;SDS011;22607;49.550;11.940;2023-05-09T11:39:05;5.50;;;1.50;;
36597;SDS011;22607;49.550;11.940;2023-05-09T11:41:41;5.40;;;1.50;;
36597;SDS011;22607;49.550;11.940;2023-05-09T11:44:16;4.95;;;1.45;;
36597;SDS011;22607;49.550;11.940;2023-05-09T11:46:45;5.22;;;1.65;;
36597;SDS011;22607;49.550;11.940;2023-05-09T11:49:13;4.65;;;1.30;;
36597;SDS011;22607;49.550;11.940;2023-05-09T11:51:40;7.72;;;1.77;;
36597;SDS011;22607;49.550;11.940;2023-05-09T11:54:07;6.05;;;1.50;;
36597;SDS011;22607;49.550;11.940;2023-05-09T11:56:34;5.22;;;1.50;;
36597;SDS011;22607;49.550;11.940;2023-05-09T11:59:01;5.35;;;1.55;;
36597;SDS011;22607;49.550;11.940;2023-05-09T12:01:34;4.70;;;1.50;;
36597;SDS011;22607;49.550;11.940;2023-05-09T12:04:01;4.75;;;1.50;;
36597;SDS011;22607;49.550;11.940;2023-05-09T12:06:28;5.68;;;1.60;;
36597;SDS011;22607;49.550;11.940;2023-05-09T12:08:55;4.65;;;1.42;;
36597;SDS011;22607;49.550;11.940;2023-05-09T12:11:24;5.18;;;1.73;;
36597;SDS011;22607;49.550;11.940;2023-05-09T12:13:51;4.85;;;1.52;;
36597;SDS011;22607;49.550;11.940;2023-05-09T12:16:18;5.22;;;1.70;;
36597;SDS011;22607;49.550;11.940;2023-05-09T12:18:47;5.80;;;1.67;;
36597;SDS011;22607;49.550;11.940;2023-05-09T12:21:15;7.28;;;1.63;;
36597;SDS011;22607;49.550;11.940;2023-05-09T12:23:43;5.30;;;1.83;;
36597;SDS011;22607;49.550;11.940;2023-05-09T12:26:12;5.28;;;1.60;;
36597;SDS011;22607;49.550;11.940;2023-05-09T12:28:40;5.13;;;1.48;;
36597;SDS011;22607;49.550;11.940;2023-05-09T12:31:07;5.85;;;1.40;;
36597;SDS011;22607;49.550;11.940;2023-05-09T12:33:35;5.35;;;1.77;;
36597;SDS011;22607;49.550;11.940;2023-05-09T12:36:10;5.38;;;1.70;;
36597;SDS011;22607;49.550;11.940;2023-05-09T12:38:38;5.78;;;1.58;;
36597;SDS011;22607;49.550;11.940;2023-05-09T12:41:05;7.25;;;1.77;;
36597;SDS011;22607;49.550;11.940;2023-05-09T12:43:47;4.78;;;1.50;;
36597;SDS011;22607;49.550;11.940;2023-05-09T12:46:18;6.95;;;1.67;;
36597;SDS011;22607;49.550;11.940;2023-05-09T12:48:45;8.33;;;1.70;;
36597;SDS011;22607;49.550;11.940;2023-05-09T12:54:27;6.18;;;1.60;;
36597;SDS011;22607;49.550;11.940;2023-05-09T12:59:24;5.07;;;1.40;;
36597;SDS011;22607;49.550;11.940;2023-05-09T13:01:55;6.38;;;1.60;;
36597;SDS011;22607;49.550;11.940;2023-05-09T13:04:24;3.55;;;1.33;;
36597;SDS011;22607;49.550;11.940;2023-05-09T13:06:53;6.93;;;1.60;;
36597;SDS011;22607;49.550;11.940;2023-05-09T13:09:21;5.95;;;1.42;;
36597;SDS011;22607;49.550;11.940;2023-05-09T13:11:51;5.03;;;1.80;;
36597;SDS011;22607;49.550;11.940;2023-05-09T13:14:19;4.88;;;1.60;;
36597;SDS011;22607;49.550;11.940;2023-05-09T13:16:47;4.50;;;1.40;;
36597;SDS011;22607;49.550;11.940;2023-05-09T13:19:13;5.53;;;1.40;;
36597;SDS011;22607;49.550;11.940;2023-05-09T13:21:40;4.95;;;1.50;;
36597;SDS011;22607;49.550;11.940;2023-05-09T13:24:06;5.38;;;1.67;;
36597;SDS011;22607;49.550;11.940;2023-05-09T13:26:33;5.95;;;1.73;;
36597;SDS011;22607;49.550;11.940;2023-05-09T13:29:14;4.82;;;1.65;;
36597;SDS011;22607;49.550;11.940;2023-05-09T13:31:41;6.30;;;1.70;;
36597;SDS011;22607;49.550;11.940;2023-05-09T13:34:07;5.57;;;1.60;;
36597;SDS011;22607;49.550;11.940;2023-05-09T13:36:34;4.80;;;1.40;;
36597;SDS011;22607;49.550;11.940;2023-05-09T13:39:00;9.02;;;1.95;;
36597;SDS011;22607;49.550;11.940;2023-05-09T13:41:27;6.40;;;1.45;;
36597;SDS011;22607;49.550;11.940;2023-05-09T13:43:55;4.65;;;1.52;;
36597;SDS011;22607;49.550;11.940;2023-05-09T13:46:22;4.93;;;1.52;;
36597;SDS011;22607;49.550;11.940;2023-05-09T13:48:49;5.93;;;1.70;;
36597;SDS011;22607;49.550;11.940;2023-05-09T13:51:15;6.30;;;1.60;;
36597;SDS011;22607;49.550;11.940;2023-05-09T13:53:42;5.95;;;1.80;;
36597;SDS011;22607;49.550;11.940;2023-05-09T13:56:08;5.10;;;1.60;;
36597;SDS011;22607;49.550;11.940;2023-05-09T13:58:35;4.05;;;1.33;;
36597;SDS011;22607;49.550;11.940;2023-05-09T14:01:02;5.25;;;1.50;;
36597;SDS011;22607;49.550;11.940;2023-05-09T14:03:28;5.63;;;1.63;;
36597;SDS011;22607;49.550;11.940;2023-05-09T14:05:56;6.13;;;1.70;;
36597;SDS011;22607;49.550;11.940;2023-05-09T14:08:25;4.38;;;1.42;;
36597;SDS011;22607;49.550;11.940;2023-05-09T14:10:51;5.88;;;1.95;;
36597;SDS011;22607;49.550;11.940;2023-05-09T14:13:21;5.50;;;1.40;;
36597;SDS011;22607;49.550;11.940;2023-05-09T14:15:51;4.78;;;1.40;;
36597;SDS011;22607;49.550;11.940;2023-05-09T14:18:22;5.13;;;1.55;;
36597;SDS011;22607;49.550;11.940;2023-05-09T14:20:48;6.07;;;1.60;;
36597;SDS011;22607;49.550;11.940;2023-05-09T14:23:15;5.05;;;1.95;;
36597;SDS011;22607;49.550;11.940;2023-05-09T14:25:41;7.35;;;1.77;;
36597;SDS011;22607;49.550;11.940;2023-05-09T14:28:08;6.68;;;1.30;;
36597;SDS011;22607;49.550;11.940;2023-05-09T14:30:35;5.07;;;1.50;;
36597;SDS011;22607;49.550;11.940;2023-05-09T14:33:02;5.43;;;1.50;;
36597;SDS011;22607;49.550;11.940;2023-05-09T14:35:29;6.00;;;1.65;;
36597;SDS011;22607;49.550;11.940;2023-05-09T14:37:58;6.25;;;1.60;;
36597;SDS011;22607;49.550;11.940;2023-05-09T14:40:27;6.72;;;1.50;;
36597;SDS011;22607;49.550;11.940;2023-05-09T14:42:59;5.72;;;1.73;;
36597;SDS011;22607;49.550;11.940;2023-05-09T14:45:28;11.57;;;1.73;;
36597;SDS011;22607;49.550;11.940;2023-05-09T14:47:55;4.65;;;1.63;;
36597;SDS011;22607;49.550;11.940;2023-05-09T14:50:21;5.97;;;1.70;;
36597;SDS011;22607;49.550;11.940;2023-05-09T14:52:48;4.75;;;1.60;;
36597;SDS011;22607;49.550;11.940;2023-05-09T14:55:16;6.18;;;1.48;;
36597;SDS011;22607;49.550;11.940;2023-05-09T14:57:43;4.28;;;1.20;;
36597;SDS011;22607;49.550;11.940;2023-05-09T15:02:47;4.97;;;1.30;;
36597;SDS011;22607;49.550;11.940;2023-05-09T15:05:17;5.75;;;1.60;;
36597;SDS011;22607;49.550;11.940;2023-05-09T15:07:43;5.50;;;1.50;;
36597;SDS011;22607;49.550;11.940;2023-05-09T15:10:10;5.50;;;1.40;;
36597;SDS011;22607;49.550;11.940;2023-05-09T15:12:36;6.28;;;2.00;;
36597;SDS011;22607;49.550;11.940;2023-05-09T15:15:13;5.95;;;1.80;;
36597;SDS011;22607;49.550;11.940;2023-05-09T15:17:41;5.18;;;1.70;;
36597;SDS011;22607;49.550;11.940;2023-05-09T15:20:13;6.47;;;1.70;;
36597;SDS011;22607;49.550;11.940;2023-05-09T15:22:41;6.57;;;1.90;;
36597;SDS011;22607;49.550;11.940;2023-05-09T15:25:08;6.80;;;1.60;;
36597;SDS011;22607;49.550;11.940;2023-05-09T15:27:35;7.18;;;1.90;;
36597;SDS011;22607;49.550;11.940;2023-05-09T15:30:02;7.22;;;1.67;;
36597;SDS011;22607;49.550;11.940;2023-05-09T15:32:29;5.88;;;1.58;;